Time;durP1;ratioP1;P1;durP2;ratioP2;P2;SDS_P1;SDS_P2;PMS_P1;PMS_P2;Temp;Humidity;BMP_temperature;BMP_pressure;BME280_temperature;BME280_humidity;BME280_pressure;Samples;Min_cycle;Max_cycle;Signal;HPM_P1;HPM_P2
2023/07/14 00:00:54;;;;;;;1.60;0.60;;;;;;;21.65;100.00;99564.67;91087;1276;137946;-60
2023/07/14 00:02:58;;;;;;;0.80;0.60;;;;;;;21.63;100.00;99546.73;91235;1269;22133;-61
2023/07/14 00:05:00;;;;;;;0.60;0.50;;;;;;;21.55;100.00;99542.11;91087;1271;138121;-60
2023/07/14 00:07:03;;;;;;;0.90;0.80;;;;;;;21.47;100.00;99543.17;91201;1271;22375;-60
2023/07/14 00:09:16;;;;;;;2.40;0.70;;;;;;;21.39;100.00;99541.27;91081;1274;139480;-61
2023/07/14 00:11:23;;;;;;;0.90;0.80;;;;;;;21.32;100.00;99539.66;91189;1270;22141;-61
2023/07/14 00:13:25;;;;;;;0.90;0.70;;;;;;;21.31;100.00;99533.21;91077;1271;138230;-61
2023/07/14 00:15:27;;;;;;;1.70;1.30;;;;;;;21.37;100.00;99531.77;91184;1272;23048;-62
2023/07/14 00:17:30;;;;;;;1.10;0.80;;;;;;;21.34;100.00;99534.50;91063;1271;141462;-61
2023/07/14 00:19:32;;;;;;;1.30;1.20;;;;;;;21.37;100.00;99535.52;91251;1272;23052;-61
2023/07/14 00:21:33;;;;;;;0.90;0.70;;;;;;;21.39;100.00;99536.21;91050;1271;139354;-62
2023/07/14 00:23:35;;;;;;;1.20;0.80;;;;;;;21.40;100.00;99535.55;91198;1270;22326;-61
2023/07/14 00:25:37;;;;;;;2.50;1.00;;;;;;;21.43;100.00;99541.89;91106;1269;139421;-63
2023/07/14 00:27:39;;;;;;;1.50;0.80;;;;;;;21.42;100.00;99540.65;91240;1272;22219;-61
2023/07/14 00:29:42;;;;;;;1.00;0.90;;;;;;;21.33;100.00;99543.78;91122;1272;139091;-62
2023/07/14 00:31:44;;;;;;;0.90;0.90;;;;;;;21.22;100.00;99533.33;91154;1272;22341;-62
2023/07/14 00:33:51;;;;;;;0.90;0.80;;;;;;;21.27;100.00;99539.15;91098;1268;139527;-61
2023/07/14 00:35:52;;;;;;;1.70;0.80;;;;;;;21.24;100.00;99536.34;91211;1269;22237;-61
2023/07/14 00:37:57;;;;;;;2.70;0.90;;;;;;;21.23;100.00;99532.77;91047;1271;139199;-63
2023/07/14 00:39:59;;;;;;;1.10;1.10;;;;;;;21.22;100.00;99533.10;91188;1277;22283;-62
2023/07/14 00:42:01;;;;;;;1.70;1.00;;;;;;;21.23;100.00;99525.66;91043;1261;138784;-62
2023/07/14 00:44:03;;;;;;;1.00;0.90;;;;;;;21.17;100.00;99528.67;91050;1272;139850;-61
2023/07/14 00:46:04;;;;;;;1.40;1.10;;;;;;;21.19;100.00;99528.61;91174;1261;23096;-60
2023/07/14 00:48:08;;;;;;;0.90;0.90;;;;;;;21.25;100.00;99524.52;91105;1258;140506;-61
2023/07/14 00:50:22;;;;;;;1.20;0.90;;;;;;;21.29;100.00;99518.87;91143;1271;22975;-61
2023/07/14 00:52:40;;;;;;;1.50;1.40;;;;;;;21.27;100.00;99513.17;91103;1271;138985;-61
2023/07/14 00:54:46;;;;;;;1.20;1.00;;;;;;;21.21;100.00;99512.08;91180;1271;22952;-61
2023/07/14 00:56:49;;;;;;;1.40;1.20;;;;;;;21.20;100.00;99509.54;91095;1272;139122;-61
2023/07/14 00:58:51;;;;;;;1.20;1.10;;;;;;;21.19;100.00;99511.27;91218;1274;22293;-61
2023/07/14 01:01:21;;;;;;;2.00;1.40;;;;;;;21.18;100.00;99519.14;91070;1263;138613;-60
2023/07/14 01:03:23;;;;;;;1.50;1.40;;;;;;;21.18;100.00;99521.08;91183;1270;22266;-63
2023/07/14 01:05:28;;;;;;;4.30;1.20;;;;;;;21.29;100.00;99524.34;91051;1270;138154;-60
2023/07/14 01:07:36;;;;;;;1.60;1.50;;;;;;;21.37;100.00;99523.75;91170;1271;22395;-61
2023/07/14 01:09:39;;;;;;;1.20;1.10;;;;;;;21.41;100.00;99522.10;91046;1259;139536;-62
2023/07/14 01:11:48;;;;;;;1.40;1.20;;;;;;;21.42;100.00;99519.60;91183;1269;22428;-60
2023/07/14 01:13:50;;;;;;;1.90;1.60;;;;;;;21.36;100.00;99517.30;91096;1271;139139;-61
2023/07/14 01:15:52;;;;;;;1.90;1.70;;;;;;;21.31;100.00;99519.89;91197;1264;22214;-65
2023/07/14 01:17:55;;;;;;;1.20;1.00;;;;;;;21.25;100.00;99516.39;91004;1271;137745;-62
2023/07/14 01:20:00;;;;;;;4.20;1.80;;;;;;;21.23;100.00;99518.51;91143;1271;22203;-60
2023/07/14 01:22:37;;;;;;;1.20;1.10;;;;;;;21.26;100.00;99517.86;91032;1271;137720;-66
2023/07/14 01:24:50;;;;;;;1.80;1.30;;;;;;;21.26;100.00;99513.09;91061;1277;139337;-61
2023/07/14 01:27:02;;;;;;;2.00;1.90;;;;;;;21.19;100.00;99507.30;91276;1258;22890;-61
2023/07/14 01:29:04;;;;;;;1.60;1.60;;;;;;;21.19;100.00;99506.13;91103;1270;139761;-62
2023/07/14 01:31:11;;;;;;;2.10;1.90;;;;;;;21.14;100.00;99504.80;91139;1271;22295;-64
2023/07/14 01:33:17;;;;;;;2.00;1.90;;;;;;;21.15;100.00;99505.44;91015;1261;139108;-62
2023/07/14 01:35:27;;;;;;;1.70;1.60;;;;;;;21.18;100.00;99507.33;91157;1260;22353;-61
2023/07/14 01:37:29;;;;;;;2.10;1.80;;;;;;;21.24;100.00;99509.52;91119;1272;139414;-62
2023/07/14 01:39:30;;;;;;;1.80;1.80;;;;;;;21.23;100.00;99511.36;91214;1272;22210;-62
2023/07/14 01:41:33;;;;;;;3.00;2.00;;;;;;;21.20;100.00;99512.34;91106;1269;139063;-62
2023/07/14 01:43:36;;;;;;;2.20;2.10;;;;;;;21.22;100.00;99517.77;91198;1268;23006;-62
2023/07/14 01:45:44;;;;;;;2.10;2.00;;;;;;;21.23;100.00;99519.05;91064;1271;138922;-63
2023/07/14 01:47:50;;;;;;;2.10;2.00;;;;;;;21.25;100.00;99522.68;91184;1271;22279;-58
2023/07/14 01:49:52;;;;;;;1.90;1.70;;;;;;;21.28;100.00;99529.49;91047;1270;138058;-67
2023/07/14 01:52:02;;;;;;;2.00;1.90;;;;;;;21.30;100.00;99535.29;91158;1273;22885;-67
2023/07/14 01:54:26;;;;;;;2.80;2.70;;;;;;;21.31;100.00;99535.17;91172;1270;22923;-68
2023/07/14 01:56:30;;;;;;;1.90;1.80;;;;;;;21.28;100.00;99534.96;91055;1261;138195;-67
2023/07/14 01:58:52;;;;;;;;;;;;;;;21.30;100.00;99531.86;91176;1269;23141;-68
2023/07/14 02:00:56;;;;;;;2.60;2.50;;;;;;;21.31;100.00;99528.93;90996;1274;126642;-61
2023/07/14 02:02:59;;;;;;;2.50;1.80;;;;;;;21.22;100.00;99516.90;91170;1271;22826;-62
2023/07/14 02:05:26;;;;;;;2.40;2.20;;;;;;;21.23;100.00;99515.66;91032;1260;139822;-61
2023/07/14 02:07:28;;;;;;;2.60;2.40;;;;;;;21.32;100.00;99521.13;91201;1274;23378;-63
2023/07/14 02:09:32;;;;;;;3.50;2.50;;;;;;;21.34;100.00;99517.81;90973;1260;138815;-61
2023/07/14 02:11:34;;;;;;;2.40;2.30;;;;;;;21.36;100.00;99518.27;91150;1274;22313;-60
2023/07/14 02:13:36;;;;;;;2.10;2.00;;;;;;;21.32;100.00;99518.90;91099;1272;141893;-61
2023/07/14 02:15:38;;;;;;;2.80;2.60;;;;;;;21.39;100.00;99520.94;91182;1274;22478;-62
2023/07/14 02:17:40;;;;;;;3.10;3.00;;;;;;;21.44;100.00;99522.48;91018;1271;138208;-63
2023/07/14 02:19:42;;;;;;;2.10;2.00;;;;;;;21.44;100.00;99526.02;91200;1271;22523;-66
2023/07/14 02:21:45;;;;;;;3.20;2.10;;;;;;;21.51;100.00;99530.21;91086;1270;139187;-63
2023/07/14 02:23:49;;;;;;;2.50;2.30;;;;;;;21.62;100.00;99525.64;91137;1272;22115;-61
2023/07/14 02:26:04;;;;;;;3.20;2.90;;;;;;;21.70;100.00;99524.77;91014;1275;138786;-62
2023/07/14 02:28:09;;;;;;;2.60;2.50;;;;;;;21.68;100.00;99523.10;91007;1273;139720;-64
2023/07/14 02:30:17;;;;;;;2.80;2.70;;;;;;;21.68;100.00;99522.55;91116;1260;23214;-60
2023/07/14 02:32:22;;;;;;;2.90;2.70;;;;;;;21.69;100.00;99526.18;91097;1273;138406;-63
2023/07/14 02:34:31;;;;;;;3.10;2.80;;;;;;;21.68;100.00;99531.67;91189;1267;23076;-63
2023/07/14 02:36:59;;;;;;;3.70;3.40;;;;;;;21.65;100.00;99535.98;91086;1258;139539;-59
2023/07/14 02:39:01;;;;;;;2.90;2.80;;;;;;;21.66;100.00;99540.95;91153;1276;23053;-59
2023/07/14 02:41:35;;;;;;;3.20;3.00;;;;;;;21.68;100.00;99544.41;91079;1275;139468;-60
2023/07/14 02:43:37;;;;;;;2.40;2.30;;;;;;;21.67;100.00;99546.27;91159;1268;22193;-62
2023/07/14 02:46:01;;;;;;;2.70;2.60;;;;;;;21.63;100.00;99542.60;91074;1276;139113;-61
2023/07/14 02:48:06;;;;;;;3.00;2.90;;;;;;;21.62;100.00;99540.66;91000;1272;139250;-62
2023/07/14 02:50:08;;;;;;;2.50;2.40;;;;;;;21.61;100.00;99538.23;91176;1272;22947;-62
2023/07/14 02:52:09;;;;;;;2.70;2.60;;;;;;;21.62;100.00;99535.77;91069;1270;138434;-62
2023/07/14 02:54:11;;;;;;;3.10;2.80;;;;;;;21.63;100.00;99535.02;91171;1273;22371;-61
2023/07/14 02:56:13;;;;;;;2.50;2.40;;;;;;;21.61;100.00;99540.67;91057;1275;139436;-58
2023/07/14 02:58:15;;;;;;;3.10;2.90;;;;;;;21.59;100.00;99546.48;91229;1261;22398;-59
2023/07/14 03:00:18;;;;;;;3.40;3.10;;;;;;;21.57;100.00;99552.02;91044;1274;139744;-59
2023/07/14 03:02:19;;;;;;;3.40;3.20;;;;;;;21.51;100.00;99542.78;91158;1260;22994;-58
2023/07/14 03:04:21;;;;;;;2.90;2.70;;;;;;;21.59;100.00;99552.08;91083;1272;139648;-58
2023/07/14 03:06:23;;;;;;;3.40;3.20;;;;;;;21.57;100.00;99552.02;91217;1271;22198;-59
2023/07/14 03:08:28;;;;;;;2.90;2.80;;;;;;;21.57;100.00;99551.53;91056;1274;138970;-59
2023/07/14 03:10:29;;;;;;;4.30;3.00;;;;;;;21.56;100.00;99545.25;91221;1260;22304;-59
2023/07/14 03:12:31;;;;;;;3.90;3.70;;;;;;;21.54;100.00;99542.29;91015;1268;139167;-59
2023/07/14 03:14:33;;;;;;;3.70;3.50;;;;;;;21.51;100.00;99540.52;91200;1274;22273;-59
2023/07/14 03:16:35;;;;;;;3.40;3.30;;;;;;;21.52;100.00;99538.55;91086;1270;138981;-59
2023/07/14 03:18:37;;;;;;;4.10;3.80;;;;;;;21.53;100.00;99544.14;91177;1273;22814;-59
2023/07/14 03:20:39;;;;;;;4.10;3.90;;;;;;;21.50;100.00;99541.45;91082;1273;139097;-58
2023/07/14 03:22:43;;;;;;;4.30;4.10;;;;;;;21.49;100.00;99544.59;91114;1261;22138;-59
2023/07/14 03:24:45;;;;;;;3.90;3.70;;;;;;;21.48;100.00;99548.01;91098;1271;139183;-58
2023/07/14 03:26:47;;;;;;;4.50;3.70;;;;;;;21.46;100.00;99550.57;91201;1271;22298;-58
2023/07/14 03:28:49;;;;;;;3.90;3.80;;;;;;;21.46;100.00;99551.77;91070;1273;138231;-60
2023/07/14 03:30:50;;;;;;;4.30;4.00;;;;;;;21.43;100.00;99546.88;91131;1268;22192;-58
2023/07/14 03:32:52;;;;;;;5.30;4.70;;;;;;;21.42;100.00;99543.56;91076;1270;139304;-59
2023/07/14 03:34:54;;;;;;;4.60;4.40;;;;;;;21.38;100.00;99539.96;91108;1276;22220;-59
2023/07/14 03:36:55;;;;;;;4.60;4.20;;;;;;;21.39;100.00;99536.23;91083;1271;139227;-58
2023/07/14 03:39:26;;;;;;;4.70;4.40;;;;;;;21.40;100.00;99532.58;91170;1260;22325;-59
2023/07/14 03:41:29;;;;;;;5.10;4.80;;;;;;;21.42;100.00;99537.72;90983;1270;138747;-58
2023/07/14 03:43:30;;;;;;;5.50;5.00;;;;;;;21.39;100.00;99544.83;91225;1274;22234;-60
2023/07/14 03:45:33;;;;;;;5.10;4.70;;;;;;;21.36;100.00;99546.20;91056;1270;139103;-59
2023/07/14 03:47:36;;;;;;;5.20;4.90;;;;;;;21.37;100.00;99547.61;91128;1259;23148;-59
2023/07/14 03:49:38;;;;;;;5.00;4.70;;;;;;;21.39;100.00;99551.00;91115;1262;138724;-58
2023/07/14 03:51:40;;;;;;;5.10;4.80;;;;;;;21.42;100.00;99549.38;91150;1274;22231;-58
2023/07/14 03:53:42;;;;;;;5.30;4.90;;;;;;;21.44;100.00;99552.64;91062;1270;138928;-59
2023/07/14 03:55:47;;;;;;;5.70;5.20;;;;;;;21.46;100.00;99551.11;91142;1272;22416;-59
2023/07/14 03:57:48;;;;;;;5.90;5.50;;;;;;;21.48;100.00;99557.83;91017;1275;139693;-59
2023/07/14 04:00:13;;;;;;;5.80;5.40;;;;;;;21.50;100.00;99567.90;91078;1270;139826;-59
2023/07/14 04:02:23;;;;;;;5.70;5.20;;;;;;;21.49;100.00;99573.01;90974;1271;22138;-59
2023/07/14 04:04:25;;;;;;;5.70;5.30;;;;;;;21.47;100.00;99571.66;91018;1270;140048;-60
2023/07/14 04:06:28;;;;;;;6.30;5.90;;;;;;;21.46;100.00;99570.15;91199;1269;22112;-59
2023/07/14 04:08:36;;;;;;;8.10;6.90;;;;;;;21.47;100.00;99571.86;91110;1258;139601;-59
2023/07/14 04:10:38;;;;;;;5.50;5.10;;;;;;;21.44;100.00;99574.21;91150;1269;22444;-59
2023/07/14 04:12:40;;;;;;;6.70;6.20;;;;;;;21.41;100.00;99573.02;91051;1270;139307;-59
2023/07/14 04:14:41;;;;;;;6.30;5.80;;;;;;;21.40;100.00;99570.10;91249;1270;22136;-58
2023/07/14 04:16:43;;;;;;;6.80;6.20;;;;;;;21.42;100.00;99570.40;90989;1270;139367;-59
2023/07/14 04:18:45;;;;;;;7.80;6.90;;;;;;;21.43;100.00;99575.77;91148;1270;22554;-59
2023/07/14 04:20:46;;;;;;;6.60;6.10;;;;;;;21.41;100.00;99580.77;91106;1270;138857;-58
2023/07/14 04:22:48;;;;;;;6.90;6.30;;;;;;;21.40;100.00;99585.44;91165;1269;23040;-59
2023/07/14 04:24:50;;;;;;;6.80;6.30;;;;;;;21.39;100.00;99582.94;91110;1269;140315;-59
2023/07/14 04:26:55;;;;;;;7.90;6.60;;;;;;;21.41;100.00;99582.05;91218;1269;22383;-59
2023/07/14 04:28:57;;;;;;;7.00;6.40;;;;;;;21.42;100.00;99580.27;91127;1270;138648;-58
2023/07/14 04:31:02;;;;;;;7.60;7.00;;;;;;;21.35;100.00;99582.58;91228;1269;22943;-59
2023/07/14 04:33:04;;;;;;;7.40;6.50;;;;;;;21.32;100.00;99583.30;90944;1270;138122;-59
2023/07/14 04:35:07;;;;;;;7.00;6.50;;;;;;;21.33;100.00;99585.69;91189;1270;22193;-58
2023/07/14 04:37:09;;;;;;;7.20;6.70;;;;;;;21.33;100.00;99585.36;91067;1270;138883;-58
2023/07/14 04:39:13;;;;;;;7.90;7.30;;;;;;;21.31;100.00;99585.80;91186;1270;22360;-58
2023/07/14 04:41:14;;;;;;;8.50;7.70;;;;;;;21.27;100.00;99587.83;91019;1270;139325;-59
2023/07/14 04:43:18;;;;;;;11.00;9.80;;;;;;;21.22;100.00;99590.02;91176;1268;22128;-57
2023/07/14 04:45:20;;;;;;;8.60;7.80;;;;;;;21.18;100.00;99593.55;91139;1270;139616;-60
2023/07/14 04:47:22;;;;;;;9.80;8.30;;;;;;;21.15;100.00;99600.66;91098;1270;22311;-59
2023/07/14 04:49:26;;;;;;;9.80;8.40;;;;;;;21.14;100.00;99607.00;91075;1270;138389;-59
2023/07/14 04:51:28;;;;;;;9.30;7.60;;;;;;;21.14;100.00;99612.85;91228;1270;22126;-59
2023/07/14 04:53:30;;;;;;;7.80;7.20;;;;;;;21.16;100.00;99621.36;91091;1270;138645;-58
2023/07/14 04:55:36;;;;;;;7.60;6.90;;;;;;;21.22;100.00;99627.14;91146;1272;23134;-59
2023/07/14 04:57:38;;;;;;;7.40;6.70;;;;;;;21.19;100.00;99629.20;91004;1273;142259;-58
2023/07/14 04:59:40;;;;;;;7.00;6.40;;;;;;;21.16;100.00;99632.09;91201;1270;22993;-59
2023/07/14 05:01:42;;;;;;;10.80;9.70;;;;;;;21.14;100.00;99636.15;91081;1270;138181;-58
2023/07/14 05:03:44;;;;;;;7.50;6.90;;;;;;;21.12;100.00;99636.80;91238;1270;22306;-58
2023/07/14 05:05:46;;;;;;;9.00;7.00;;;;;;;21.12;100.00;99639.80;91163;1270;139542;-59
2023/07/14 05:07:48;;;;;;;11.40;7.40;;;;;;;21.09;100.00;99641.05;91213;1270;22164;-59
2023/07/14 05:09:50;;;;;;;8.70;6.30;;;;;;;21.06;100.00;99645.56;91072;1270;138442;-59
2023/07/14 05:11:52;;;;;;;8.90;8.00;;;;;;;21.05;100.00;99645.99;91203;1269;22297;-58
2023/07/14 05:13:54;;;;;;;7.10;6.40;;;;;;;21.04;100.00;99647.52;91094;1269;137720;-59
2023/07/14 05:15:57;;;;;;;5.70;5.30;;;;;;;20.99;100.00;99640.86;91211;1269;22347;-58
2023/07/14 05:17:58;;;;;;;6.90;6.30;;;;;;;21.05;100.00;99655.86;91090;1270;141938;-58
2023/07/14 05:20:01;;;;;;;7.60;6.60;;;;;;;21.01;100.00;99664.86;91191;1270;22206;-58
2023/07/14 05:22:03;;;;;;;6.80;5.70;;;;;;;20.92;100.00;99663.62;91169;1258;22829;-58
2023/07/14 05:24:05;;;;;;;6.10;5.70;;;;;;;20.82;100.00;99667.75;91103;1260;138583;-58
2023/07/14 05:26:07;;;;;;;7.10;5.80;;;;;;;20.70;100.00;99677.45;91193;1270;22301;-59
2023/07/14 05:28:09;;;;;;;13.70;8.10;;;;;;;20.58;100.00;99687.45;91093;1270;140103;-59
2023/07/14 05:30:14;;;;;;;11.00;7.40;;;;;;;20.42;100.00;99691.11;91145;1270;22235;-58
2023/07/14 05:32:16;;;;;;;8.90;5.80;;;;;;;20.22;100.00;99704.23;90963;1270;156154;-58
2023/07/14 05:35:15;;;;;;;8.00;6.70;;;;;;;19.74;100.00;99703.33;85527;1305;545065;-58
2023/07/14 05:37:18;;;;;;;6.30;5.70;;;;;;;19.48;100.00;99693.14;87328;1282;138593;-58
2023/07/14 17:52:23;;;;;;;1.10;0.60;;;;;;;22.72;79.83;100059.33;85254;1292;549227;-61
2023/07/14 17:54:30;;;;;;;2.80;0.40;;;;;;;22.71;79.57;100057.37;87706;1282;22539;-61
2023/07/14 17:56:31;;;;;;;2.30;0.50;;;;;;;22.75;79.95;100060.57;87428;1280;140381;-60
2023/07/14 17:58:33;;;;;;;5.50;0.90;;;;;;;22.75;80.80;100063.50;87431;1279;26219;-60
2023/07/14 18:00:35;;;;;;;3.80;0.80;;;;;;;22.72;81.60;100062.73;87939;1280;136401;-60
2023/07/14 18:02:37;;;;;;;4.50;1.30;;;;;;;22.67;82.13;100062.98;87526;1279;25433;-62
2023/07/14 18:04:39;;;;;;;1.50;1.20;;;;;;;22.63;82.55;100062.61;87629;1279;138111;-60
2023/07/14 18:06:41;;;;;;;3.60;1.70;;;;;;;22.61;82.91;100062.38;87533;1276;176584;-61
2023/07/14 18:08:43;;;;;;;1.80;0.50;;;;;;;22.58;83.35;100060.06;87968;1266;138864;-60
2023/07/14 18:10:49;;;;;;;3.60;1.70;;;;;;;22.54;84.02;100060.39;88012;1270;22656;-59
2023/07/14 18:12:51;;;;;;;3.80;2.00;;;;;;;22.50;84.63;100064.20;87917;1270;139342;-59
2023/07/14 18:14:53;;;;;;;2.00;1.30;;;;;;;22.47;85.09;100066.92;87959;1272;25322;-62
2023/07/14 18:16:55;;;;;;;15.70;6.70;;;;;;;22.44;85.07;100065.52;87877;1270;139413;-60
2023/07/14 18:18:59;;;;;;;15.30;7.00;;;;;;;22.43;85.05;100064.05;88012;1270;22553;-61
2023/07/14 18:21:02;;;;;;;2.20;1.30;;;;;;;22.43;85.31;100065.90;91131;1270;138868;-61
2023/07/14 18:23:04;;;;;;;3.70;1.40;;;;;;;22.42;86.04;100065.13;91101;1272;23262;-60
2023/07/14 18:25:15;;;;;;;4.70;2.60;;;;;;;22.43;86.48;100069.15;91206;1269;138961;-60
2023/07/14 18:27:18;;;;;;;3.40;2.20;;;;;;;22.41;86.54;100070.84;91266;1269;23006;-60
2023/07/14 18:29:20;;;;;;;6.30;2.50;;;;;;;22.38;87.05;100068.83;91166;1269;139092;-60
2023/07/14 18:31:22;;;;;;;4.60;2.90;;;;;;;22.35;87.38;100071.06;91272;1270;23066;-59
2023/07/14 18:33:27;;;;;;;5.00;2.20;;;;;;;22.33;87.85;100076.88;91178;1270;137490;-59
2023/07/14 18:35:33;;;;;;;4.90;2.80;;;;;;;22.30;88.36;100080.52;91276;1270;22325;-59
2023/07/14 18:37:35;;;;;;;5.30;2.00;;;;;;;22.25;88.86;100080.67;91192;1269;137759;-59
2023/07/14 18:39:39;;;;;;;4.00;2.20;;;;;;;22.20;89.17;100084.84;91273;1270;22875;-59
2023/07/14 18:41:44;;;;;;;3.30;1.80;;;;;;;22.15;89.47;100084.62;91167;1270;137928;-60
2023/07/14 18:43:46;;;;;;;1.80;1.20;;;;;;;22.12;89.50;100081.80;91173;1269;22340;-59
2023/07/14 18:45:48;;;;;;;2.20;1.30;;;;;;;22.11;89.37;100082.89;91158;1269;138381;-59
2023/07/14 18:47:50;;;;;;;3.30;1.50;;;;;;;22.11;89.66;100079.25;91277;1270;23218;-59
2023/07/14 18:49:53;;;;;;;1.90;1.40;;;;;;;22.14;89.88;100083.54;91181;1270;138721;-61
2023/07/14 18:51:55;;;;;;;2.30;1.10;;;;;;;22.15;89.71;100087.33;91253;1272;22242;-61
2023/07/14 18:54:16;;;;;;;5.70;1.60;;;;;;;22.16;89.49;100088.80;91169;1270;138801;-59
2023/07/14 18:56:18;;;;;;;4.60;2.10;;;;;;;22.16;89.57;100091.14;91158;1270;139723;-60
2023/07/14 18:58:25;;;;;;;3.80;1.20;;;;;;;22.17;89.39;100094.45;91248;1273;22424;-60
2023/07/14 19:00:28;;;;;;;2.90;1.50;;;;;;;22.17;89.31;100094.50;91140;1272;141319;-60
2023/07/14 19:02:31;;;;;;;1.60;1.30;;;;;;;22.17;89.01;100095.59;91201;1270;22993;-60
2023/07/14 19:04:34;;;;;;;2.90;1.60;;;;;;;22.19;88.02;100098.56;91070;1272;137261;-60
2023/07/14 19:06:36;;;;;;;2.00;1.90;;;;;;;22.21;87.37;100098.84;91199;1272;22330;-61
2023/07/14 19:08:38;;;;;;;3.30;1.60;;;;;;;22.21;86.71;100105.20;91124;1269;140718;-59
2023/07/14 19:10:40;;;;;;;1.30;1.20;;;;;;;22.23;85.28;100105.90;91201;1272;22391;-60
2023/07/14 19:12:43;;;;;;;3.00;1.00;;;;;;;22.24;84.47;100107.43;91020;1270;138726;-61
2023/07/14 19:14:46;;;;;;;2.70;0.80;;;;;;;22.23;83.73;100104.92;91109;1270;22711;-59
2023/07/14 19:16:48;;;;;;;1.70;0.80;;;;;;;22.21;81.86;100108.13;90983;1270;138912;-60
2023/07/14 19:18:51;;;;;;;1.90;0.90;;;;;;;22.20;80.94;100104.92;91202;1269;22324;-60
2023/07/14 19:20:56;;;;;;;3.10;0.90;;;;;;;22.21;80.17;100107.15;91147;1273;138901;-60
2023/07/14 19:22:57;;;;;;;;;;;;;;;22.20;78.52;100108.45;91298;1270;23051;-60
2023/07/14 19:24:59;;;;;;;2.30;0.40;;;;;;;22.19;77.29;100111.55;91167;1257;124621;-61
2023/07/14 19:27:01;;;;;;;4.00;0.50;;;;;;;22.19;77.02;100111.44;91276;1269;22964;-61
2023/07/14 19:29:04;;;;;;;4.20;0.60;;;;;;;22.22;75.88;100116.98;91160;1269;138455;-70
2023/07/14 19:31:20;;;;;;;2.00;1.00;;;;;;;22.25;75.46;100116.89;91230;1270;22360;-70
2023/07/14 19:33:22;;;;;;;1.20;0.70;;;;;;;22.27;75.37;100117.23;91258;1275;138075;-69
2023/07/14 19:35:24;;;;;;;6.80;1.30;;;;;;;22.28;75.23;100119.57;91342;1273;22286;-69
2023/07/14 19:37:26;;;;;;;4.80;1.10;;;;;;;22.29;75.03;100121.24;91220;1269;136966;-70
2023/07/14 19:39:28;;;;;;;2.30;1.10;;;;;;;22.29;74.47;100120.38;91313;1270;22211;-69
2023/07/14 19:41:29;;;;;;;2.20;1.40;;;;;;;22.28;74.17;100120.44;91193;1270;137489;-69
2023/07/14 19:43:31;;;;;;;1.90;0.80;;;;;;;22.27;74.11;100120.86;91314;1270;22190;-68
2023/07/14 19:45:32;;;;;;;3.00;0.90;;;;;;;22.28;73.61;100122.66;91250;1269;137399;-69
2023/07/14 19:47:35;;;;;;;2.60;1.10;;;;;;;22.29;73.27;100122.06;91324;1259;22296;-69
2023/07/14 19:49:37;;;;;;;2.40;1.60;;;;;;;22.29;73.18;100127.01;91248;1266;138898;-68
2023/07/14 19:51:40;;;;;;;4.80;1.20;;;;;;;22.29;73.22;100128.25;91337;1271;23339;-69
2023/07/14 19:53:42;;;;;;;1.50;1.40;;;;;;;22.28;73.08;100134.61;91221;1273;137472;-69
2023/07/14 19:55:43;;;;;;;2.10;1.00;;;;;;;22.26;73.08;100133.84;91355;1272;22388;-68
2023/07/14 19:57:47;;;;;;;1.70;1.10;;;;;;;22.26;73.04;100130.14;91206;1273;137295;-69
2023/07/14 19:59:49;;;;;;;4.80;0.90;;;;;;;22.25;73.31;100129.48;91333;1273;22278;-70
2023/07/14 20:01:51;;;;;;;3.30;1.10;;;;;;;22.24;73.29;100132.94;91201;1273;138573;-68
2023/07/14 20:03:53;;;;;;;0.90;0.70;;;;;;;22.24;73.23;100136.24;91332;1270;22924;-70
2023/07/14 20:05:56;;;;;;;2.10;0.90;;;;;;;22.06;73.29;100104.51;91259;1272;136828;-69
2023/07/14 20:07:57;;;;;;;5.10;1.10;;;;;;;22.26;73.25;100135.20;91182;1272;22213;-69
2023/07/14 20:09:59;;;;;;;1.30;1.10;;;;;;;22.26;73.13;100135.35;91083;1275;137844;-68
2023/07/14 20:12:01;;;;;;;1.00;0.70;;;;;;;22.25;73.10;100135.34;91212;1270;22297;-69
2023/07/14 20:14:24;;;;;;;1.30;0.90;;;;;;;22.23;72.92;100137.66;91199;1272;138702;-71
2023/07/14 20:16:26;;;;;;;3.00;1.00;;;;;;;22.22;72.62;100140.00;91064;1260;138161;-70
2023/07/14 20:18:30;;;;;;;2.40;1.00;;;;;;;22.20;72.40;100140.70;91292;1272;23046;-69
2023/07/14 20:20:33;;;;;;;1.00;0.70;;;;;;;22.20;72.32;100141.02;91261;1270;137630;-70
2023/07/14 20:22:34;;;;;;;5.00;1.20;;;;;;;22.20;71.85;100141.85;91353;1272;22995;-70
2023/07/14 20:24:38;;;;;;;0.50;0.40;;;;;;;22.21;71.16;100143.04;91268;1272;137493;-71
2023/07/14 20:26:39;;;;;;;1.20;0.60;;;;;;;22.23;71.03;100145.59;91368;1269;22238;-69
2023/07/14 20:28:41;;;;;;;2.40;0.50;;;;;;;22.25;70.06;100149.20;91247;1272;137446;-70
2023/07/14 20:30:46;;;;;;;0.50;0.30;;;;;;;22.27;69.60;100150.35;91308;1272;22986;-70
2023/07/14 20:32:49;;;;;;;4.80;0.60;;;;;;;22.26;69.01;100151.80;91227;1270;138423;-70
2023/07/14 20:34:52;;;;;;;2.10;1.10;;;;;;;22.25;68.86;100156.31;91093;1277;22311;-70
2023/07/14 20:36:53;;;;;;;1.90;0.50;;;;;;;22.26;68.95;100156.05;91206;1272;137063;-70
2023/07/14 20:38:57;;;;;;;0.50;0.50;;;;;;;22.27;69.08;100154.91;91136;1275;22805;-69
2023/07/14 20:41:00;;;;;;;2.20;0.80;;;;;;;22.27;69.54;100158.77;91201;1270;137414;-70
2023/07/14 20:43:12;;;;;;;0.90;0.70;;;;;;;22.24;69.59;100159.27;91122;1276;22222;-70
2023/07/14 20:45:15;;;;;;;1.70;0.60;;;;;;;22.23;69.23;100164.55;91252;1269;137640;-69
2023/07/14 20:47:18;;;;;;;7.50;0.70;;;;;;;22.23;69.17;100162.05;91382;1270;22097;-69
2023/07/14 20:49:22;;;;;;;1.20;0.80;;;;;;;22.20;69.25;100164.86;91246;1270;137144;-70
2023/07/14 20:51:24;;;;;;;;;;;;;;;22.17;69.31;100164.64;91305;1269;23134;-69
2023/07/14 20:53:29;;;;;;;2.70;0.50;;;;;;;22.05;69.12;100154.75;91213;1273;124430;-68
2023/07/14 20:55:31;;;;;;;1.60;0.40;;;;;;;22.02;69.02;100154.30;91334;1272;22307;-69
2023/07/14 20:57:33;;;;;;;2.00;1.10;;;;;;;22.05;69.02;100167.02;91294;1276;138721;-69
2023/07/14 20:59:35;;;;;;;2.30;0.60;;;;;;;22.01;69.43;100163.42;91364;1270;23290;-70
2023/07/14 21:01:37;;;;;;;2.70;1.10;;;;;;;21.96;69.45;100164.77;91217;1273;136970;-69
2023/07/14 21:03:38;;;;;;;0.50;0.40;;;;;;;21.93;69.58;100166.39;91352;1270;22454;-69
2023/07/14 21:05:40;;;;;;;2.50;2.30;;;;;;;21.94;69.56;100165.64;91232;1276;137280;-69
2023/07/14 21:07:43;;;;;;;1.00;0.50;;;;;;;21.94;69.63;100163.73;91171;1278;23128;-69
2023/07/14 21:09:45;;;;;;;2.80;0.40;;;;;;;21.89;69.59;100165.30;91103;1278;137621;-69
2023/07/14 21:11:47;;;;;;;0.90;0.70;;;;;;;21.86;69.30;100163.50;91187;1262;23160;-69
2023/07/14 21:13:53;;;;;;;0.90;0.40;;;;;;;21.81;68.90;100161.42;91266;1270;137517;-68
2023/07/14 21:15:55;;;;;;;1.30;1.20;;;;;;;21.80;68.68;100161.04;91311;1272;22280;-69
2023/07/14 21:17:57;;;;;;;5.40;4.30;;;;;;;21.79;68.73;100162.94;91303;1270;138592;-70
2023/07/14 21:19:59;;;;;;;1.10;0.70;;;;;;;21.79;68.62;100163.96;91345;1270;22204;-70
2023/07/14 21:22:01;;;;;;;2.10;1.40;;;;;;;21.75;67.71;100164.02;91136;1276;138450;-70
2023/07/14 21:24:17;;;;;;;2.20;0.60;;;;;;;21.74;67.42;100164.34;91234;1276;22328;-70
2023/07/14 21:26:31;;;;;;;0.30;0.30;;;;;;;21.69;67.59;100166.38;91155;1270;23220;-69
2023/07/14 21:28:33;;;;;;;0.60;0.40;;;;;;;21.66;67.23;100168.38;91162;1275;137765;-70
2023/07/14 21:30:35;;;;;;;0.80;0.30;;;;;;;21.63;66.70;100167.83;91326;1276;23085;-68
2023/07/14 21:32:38;;;;;;;1.00;0.70;;;;;;;21.59;66.72;100170.30;91268;1276;137821;-69
2023/07/14 21:34:41;;;;;;;0.30;0.30;;;;;;;21.55;66.98;100171.76;91255;1270;22208;-68
2023/07/14 21:36:43;;;;;;;2.00;0.40;;;;;;;21.54;66.96;100175.98;91145;1277;138083;-69
2023/07/14 21:38:45;;;;;;;3.40;0.60;;;;;;;21.52;66.97;100172.99;91264;1270;23185;-68
2023/07/14 21:40:50;;;;;;;1.10;0.30;;;;;;;21.48;66.98;100174.27;91179;1270;137786;-71
2023/07/14 21:42:52;;;;;;;0.70;0.30;;;;;;;21.45;67.18;100172.95;91209;1270;23360;-68
2023/07/14 21:44:54;;;;;;;0.80;0.20;;;;;;;21.42;67.15;100176.60;91126;1273;137435;-70
2023/07/14 21:46:56;;;;;;;1.20;0.20;;;;;;;21.38;67.05;100177.40;91148;1275;22235;-69
2023/07/14 21:48:58;;;;;;;1.70;0.20;;;;;;;21.34;66.95;100180.73;91145;1270;137443;-68